Terminal Aerodrome Forecast
Issued by NWS Cleveland, OH

Home | Current Version | Previous Version | Text Only | Print | Product List | Glossary On
Versions: 1 2 3 4 5 6 7 8 9 10 11 12 13 14 15 16 17 18
000
FTUS41 KCLE 202300
TAFCAK
TAF
KCAK 202320Z 2100/2124 VRB03KT P6SM OVC028
     FM210200 VRB03KT P6SM -SHSN OVC025
      TEMPO 2102/2106 5SM -SHSN OVC020
     FM210800 VRB03KT P6SM OVC015
     FM211600 18003KT P6SM BKN025
     FM212100 14004KT P6SM SCT025 BKN250=

USA.gov is the U.S. government's official web portal to all federal, state and local government web resources and services.